createdAt,value
2019-01-27T00:00:14.534Z,84.57
2019-01-27T00:02:42.813Z,80.80
2019-01-27T00:05:11.349Z,85.43
2019-01-27T00:07:39.625Z,78.67
2019-01-27T00:10:10.463Z,84.83
2019-01-27T00:12:38.739Z,80.23
2019-01-27T00:15:10.367Z,84.70
2019-01-27T00:17:38.630Z,82.70
2019-01-27T00:20:20.737Z,75.20
2019-01-27T00:22:49.016Z,79.80
2019-01-27T00:25:17.858Z,78.73
2019-01-27T00:27:46.132Z,87.20
2019-01-27T00:30:22.107Z,84.67
2019-01-27T00:32:50.701Z,82.73
2019-01-27T00:35:18.994Z,76.53
2019-01-27T00:37:47.448Z,81.07
2019-01-27T00:40:16.981Z,82.40
2019-01-27T00:42:45.596Z,82.77
2019-01-27T00:45:18.277Z,85.23
2019-01-27T00:47:46.627Z,84.93
2019-01-27T00:50:19.761Z,86.03
2019-01-27T00:52:48.043Z,81.90
2019-01-27T00:55:21.833Z,81.13
2019-01-27T00:57:50.155Z,76.27
2019-01-27T01:00:24.474Z,76.60
2019-01-27T01:02:52.923Z,70.63
2019-01-27T01:05:21.286Z,82.77
2019-01-27T01:07:49.633Z,82.47
2019-01-27T01:10:22.649Z,89.07
2019-01-27T01:12:51.280Z,85.40
2019-01-27T01:15:19.700Z,94.13
2019-01-27T01:17:48.167Z,80.93
2019-01-27T01:20:19.514Z,92.00
2019-01-27T01:22:48.948Z,89.83
2019-01-27T01:25:22.623Z,101.17
2019-01-27T01:27:51.903Z,87.90
2019-01-27T01:30:22.964Z,116.73
2019-01-27T01:32:51.346Z,110.80
2019-01-27T01:35:19.739Z,99.70
2019-01-27T01:37:48.238Z,124.47
2019-01-27T01:40:18.058Z,128.03
2019-01-27T01:42:46.925Z,115.33
2019-01-27T01:45:20.593Z,121.73
2019-01-27T01:47:48.958Z,142.57
2019-01-27T01:50:17.411Z,130.43
2019-01-27T01:52:45.878Z,165.30
2019-01-27T01:55:15.507Z,137.93
2019-01-27T01:57:44.074Z,153.40
2019-01-27T02:00:23.272Z,184.90
2019-01-27T02:02:51.571Z,182.43
2019-01-27T02:05:20.391Z,147.67
2019-01-27T02:07:49.307Z,156.10
2019-01-27T02:10:21.822Z,177.27
2019-01-27T02:12:50.897Z,168.97
2019-01-27T02:15:28.469Z,182.83
2019-01-27T02:17:56.850Z,192.40
2019-01-27T02:20:25.138Z,172.47
2019-01-27T02:22:53.445Z,163.43
2019-01-27T02:25:22.043Z,167.53
2019-01-27T02:27:50.353Z,192.70
2019-01-27T02:30:19.287Z,182.27
2019-01-27T02:32:47.839Z,168.57
2019-01-27T02:35:16.150Z,159.87
2019-01-27T02:37:44.437Z,212.10
2019-01-27T02:40:12.827Z,185.67
2019-01-27T02:42:41.122Z,205.73
2019-01-27T02:45:14.861Z,188.77
2019-01-27T02:47:43.143Z,196.23
2019-01-27T02:50:12.078Z,198.80
2019-01-27T02:52:40.613Z,216.73
2019-01-27T02:55:09.681Z,188.17
2019-01-27T02:57:37.947Z,174.23
2019-01-27T03:00:09.418Z,216.80
2019-01-27T03:02:37.697Z,201.60
2019-01-27T03:05:09.575Z,206.40
2019-01-27T03:07:38.326Z,191.70
2019-01-27T03:10:12.533Z,203.63
2019-01-27T03:12:40.814Z,193.60
2019-01-27T03:15:10.954Z,206.10
2019-01-27T03:17:39.500Z,185.47
2019-01-27T03:20:10.721Z,190.83
2019-01-27T03:22:39.012Z,143.40
2019-01-27T03:25:10.461Z,190.60
2019-01-27T03:27:39.023Z,191.83
2019-01-27T03:30:10.494Z,205.77
2019-01-27T03:32:38.799Z,168.73
2019-01-27T03:35:09.330Z,182.90
2019-01-27T03:37:37.906Z,161.47
2019-01-27T03:40:12.238Z,189.80
2019-01-27T03:42:40.611Z,158.23
2019-01-27T03:45:12.364Z,153.83
2019-01-27T03:47:40.606Z,144.07
2019-01-27T03:50:19.011Z,144.33
2019-01-27T03:52:47.575Z,166.73
2019-01-27T03:55:27.698Z,140.40
2019-01-27T03:57:56.002Z,134.67
2019-01-27T04:00:24.755Z,133.13
2019-01-27T04:02:53.128Z,139.97
2019-01-27T04:05:21.885Z,144.80
2019-01-27T04:07:50.584Z,112.70
2019-01-27T04:10:21.482Z,113.63
2019-01-27T04:12:49.798Z,137.70
2019-01-27T04:15:18.150Z,141.63
2019-01-27T04:17:46.446Z,124.43
2019-01-27T04:20:22.181Z,133.40
2019-01-27T04:22:50.483Z,107.43
2019-01-27T04:25:19.296Z,117.60
2019-01-27T04:27:47.654Z,115.87
2019-01-27T04:30:20.045Z,112.03
2019-01-27T04:32:48.583Z,115.73
2019-01-27T04:35:16.943Z,116.97
2019-01-27T04:37:45.249Z,131.53
2019-01-27T04:40:21.323Z,119.60
2019-01-27T04:42:49.627Z,122.07
2019-01-27T04:45:19.556Z,114.20
2019-01-27T04:47:47.837Z,116.50
2019-01-27T04:50:16.211Z,111.03
2019-01-27T04:52:44.497Z,131.63
2019-01-27T04:55:18.770Z,103.10
2019-01-27T04:57:47.450Z,125.43
2019-01-27T05:00:21.612Z,122.07
2019-01-27T05:02:51.538Z,125.53
2019-01-27T05:05:19.850Z,121.23
2019-01-27T05:07:48.134Z,119.87
2019-01-27T05:10:16.438Z,115.43
2019-01-27T05:12:44.727Z,106.33
2019-01-27T05:15:17.246Z,113.43
2019-01-27T05:17:45.777Z,122.47
2019-01-27T05:20:14.249Z,103.17
2019-01-27T05:22:42.532Z,100.60
2019-01-27T05:25:15.884Z,111.83
2019-01-27T05:27:44.216Z,113.90
2019-01-27T05:30:18.370Z,110.97
2019-01-27T05:32:46.731Z,94.20
2019-01-27T05:35:15.023Z,104.57
2019-01-27T05:37:43.587Z,111.10
2019-01-27T05:40:17.611Z,133.80
2019-01-27T05:42:46.238Z,109.53
2019-01-27T05:45:16.533Z,113.90
2019-01-27T05:47:44.902Z,99.67
2019-01-27T05:50:18.045Z,140.80
2019-01-27T05:52:46.485Z,106.60
2019-01-27T05:55:16.072Z,93.47
2019-01-27T05:57:44.730Z,91.13
2019-01-27T06:00:20.552Z,119.03
2019-01-27T06:02:48.856Z,100.07
2019-01-27T06:05:17.192Z,110.37
2019-01-27T06:07:45.567Z,106.17
2019-01-27T06:10:14.358Z,101.50
2019-01-27T06:12:42.651Z,95.97
2019-01-27T06:15:14.348Z,113.17
2019-01-27T06:17:42.646Z,99.47
2019-01-27T06:20:14.080Z,106.50
2019-01-27T06:22:42.557Z,110.53
2019-01-27T06:25:13.284Z,106.77
2019-01-27T06:27:41.603Z,109.70
2019-01-27T06:30:23.562Z,101.87
2019-01-27T06:32:59.595Z,111.70
2019-01-27T06:35:28.185Z,104.60
2019-01-27T06:37:56.499Z,113.17
2019-01-27T06:40:25.049Z,118.13
2019-01-27T06:42:53.352Z,108.07
2019-01-27T06:45:21.634Z,116.30
2019-01-27T06:47:50.007Z,111.60
2019-01-27T06:50:18.437Z,119.83
2019-01-27T06:52:46.742Z,121.73
2019-01-27T06:55:17.589Z,118.97
2019-01-27T06:57:45.991Z,144.40
2019-01-27T07:00:21.737Z,104.10
2019-01-27T07:02:51.691Z,111.97
2019-01-27T07:05:21.609Z,117.47
2019-01-27T07:07:54.577Z,115.20
2019-01-27T07:10:24.498Z,131.57
2019-01-27T07:12:55.988Z,125.63
2019-01-27T07:15:25.921Z,117.50
2019-01-27T07:17:55.856Z,114.00
2019-01-27T07:20:28.249Z,110.87
2019-01-27T07:23:03.676Z,111.67
2019-01-27T07:25:36.290Z,88.47
2019-01-27T07:28:09.653Z,94.10
2019-01-27T07:30:39.588Z,106.10
2019-01-27T07:33:15.727Z,102.87
2019-01-27T07:35:48.363Z,104.67
2019-01-27T07:38:21.370Z,103.87
2019-01-27T07:40:57.101Z,101.03
2019-01-27T07:43:29.734Z,99.40
2019-01-27T07:46:03.534Z,128.03
2019-01-27T07:48:49.617Z,93.43
2019-01-27T07:51:19.541Z,99.37
2019-01-27T07:53:58.560Z,97.63
2019-01-27T07:56:37.045Z,90.17
2019-01-27T07:59:09.770Z,92.53
2019-01-27T08:01:42.414Z,108.07
2019-01-27T08:04:15.058Z,104.33
2019-01-27T08:06:44.979Z,101.20
2019-01-27T08:09:17.612Z,94.83
2019-01-27T08:11:56.514Z,100.43
2019-01-27T08:14:32.242Z,95.10
2019-01-27T08:17:10.922Z,90.17
2019-01-27T08:19:50.223Z,87.23
2019-01-27T08:22:25.874Z,87.37
2019-01-27T08:24:55.804Z,87.90
2019-01-27T08:27:25.721Z,91.30
2019-01-27T08:30:01.672Z,91.50
2019-01-27T08:32:45.250Z,93.00
2019-01-27T08:35:17.917Z,89.70
2019-01-27T08:37:47.842Z,90.47
2019-01-27T08:40:21.157Z,74.17
2019-01-27T08:42:54.111Z,88.53
2019-01-27T08:45:24.118Z,87.00
2019-01-27T08:47:52.397Z,85.93
2019-01-27T08:50:20.705Z,89.80
2019-01-27T08:52:49.302Z,94.27
2019-01-27T08:55:17.587Z,91.53
2019-01-27T08:57:45.883Z,93.97
2019-01-27T09:00:17.176Z,95.43
2019-01-27T09:03:04.950Z,88.00
2019-01-27T09:05:34.875Z,85.53
2019-01-27T09:08:10.841Z,75.53
2019-01-27T09:10:40.756Z,82.57
2019-01-27T09:13:13.647Z,64.20
2019-01-27T09:15:49.277Z,89.83
2019-01-27T09:18:25.006Z,59.50
2019-01-27T09:20:55.156Z,72.27
2019-01-27T09:23:25.097Z,78.40
2019-01-27T09:25:57.992Z,63.43
2019-01-27T09:28:27.935Z,68.37
2019-01-27T09:31:00.770Z,78.30
2019-01-27T09:33:33.615Z,63.77
2019-01-27T09:36:03.525Z,82.57
2019-01-27T09:38:33.475Z,140.10
2019-01-27T09:41:14.971Z,71.40
2019-01-27T09:43:53.972Z,58.53
2019-01-27T09:46:35.745Z,55.37
2019-01-27T09:49:11.806Z,50.17
2019-01-27T09:51:41.726Z,52.73
2019-01-27T09:54:11.674Z,52.87
2019-01-27T09:56:44.510Z,47.83
2019-01-27T09:59:14.447Z,52.30
2019-01-27T10:01:44.393Z,47.80
2019-01-27T10:04:30.481Z,47.60
2019-01-27T10:07:00.407Z,50.80
2019-01-27T10:09:33.260Z,68.83
2019-01-27T10:12:06.112Z,58.10
2019-01-27T10:14:36.037Z,61.53
2019-01-27T10:17:14.952Z,58.60
2019-01-27T10:19:50.706Z,59.43
2019-01-27T10:22:23.375Z,52.50
2019-01-27T10:25:15.997Z,49.73
2019-01-27T10:27:51.629Z,71.70
2019-01-27T10:30:27.678Z,50.70
2019-01-27T10:32:57.615Z,54.57
2019-01-27T10:35:30.125Z,51.23
2019-01-27T10:38:08.796Z,51.33
2019-01-27T10:40:41.705Z,50.00
2019-01-27T10:43:14.451Z,54.87
2019-01-27T10:45:44.377Z,58.03
2019-01-27T10:48:29.475Z,57.50
2019-01-27T10:50:59.404Z,57.77
2019-01-27T10:53:35.242Z,76.30
2019-01-27T10:56:14.248Z,67.03
2019-01-27T10:58:59.832Z,70.87
2019-01-27T11:01:32.505Z,79.77
2019-01-27T11:04:02.483Z,72.93
2019-01-27T11:06:41.263Z,72.70
2019-01-27T11:09:19.994Z,80.37
2019-01-27T11:11:49.924Z,81.43
2019-01-27T11:14:22.493Z,79.03
2019-01-27T11:16:55.283Z,78.03
2019-01-27T11:19:33.899Z,87.60
2019-01-27T11:22:06.563Z,88.30
2019-01-27T11:24:36.448Z,92.57
2019-01-27T11:27:09.123Z,92.40
2019-01-27T11:29:41.806Z,87.67
2019-01-27T11:32:11.902Z,83.13
2019-01-27T11:34:41.831Z,71.73
2019-01-27T11:37:14.751Z,53.13
2019-01-27T11:40:03.070Z,66.90
2019-01-27T11:42:47.826Z,63.20
2019-01-27T11:45:23.688Z,67.40
2019-01-27T11:47:59.280Z,62.90
2019-01-27T11:50:29.362Z,61.80
2019-01-27T11:52:57.656Z,53.87
2019-01-27T11:55:25.947Z,81.17
2019-01-27T11:57:54.254Z,79.13
2019-01-27T12:00:24.478Z,83.90
2019-01-27T12:02:52.779Z,84.43
2019-01-27T12:05:21.054Z,72.40
2019-01-27T12:07:49.350Z,92.93
2019-01-27T12:10:17.634Z,97.93
2019-01-27T12:12:45.906Z,101.20
2019-01-27T12:15:16.941Z,99.97
2019-01-27T12:17:45.225Z,101.80
2019-01-27T12:20:13.694Z,105.63
2019-01-27T12:22:41.987Z,102.63
2019-01-27T12:25:13.295Z,100.00
2019-01-27T12:27:41.893Z,107.10
2019-01-27T12:30:15.885Z,112.13
2019-01-27T12:32:44.170Z,115.10
2019-01-27T12:35:12.539Z,118.87
2019-01-27T12:37:40.852Z,121.73
2019-01-27T12:40:23.898Z,120.23
2019-01-27T12:42:52.183Z,115.90
2019-01-27T12:45:20.746Z,99.47
2019-01-27T12:47:49.028Z,101.03
2019-01-27T12:50:20.753Z,100.40
2019-01-27T12:52:51.673Z,89.13
2019-01-27T12:55:20.034Z,89.30
2019-01-27T12:57:48.322Z,81.67
2019-01-27T13:00:22.540Z,77.33
2019-01-27T13:02:50.836Z,71.33
2019-01-27T13:05:19.116Z,90.93
2019-01-27T13:07:47.405Z,68.10
2019-01-27T13:10:16.783Z,66.53
2019-01-27T13:12:45.142Z,59.93
2019-01-27T13:15:16.356Z,58.37
2019-01-27T13:17:44.645Z,66.27
2019-01-27T13:20:14.072Z,62.73
2019-01-27T13:22:42.536Z,51.97
2019-01-27T13:25:13.619Z,49.73
2019-01-27T13:27:42.088Z,59.30
2019-01-27T13:30:16.070Z,55.43
2019-01-27T13:32:44.362Z,54.67
2019-01-27T13:35:12.778Z,58.90
2019-01-27T13:37:41.147Z,63.57
2019-01-27T13:40:12.734Z,65.80
2019-01-27T13:42:41.203Z,56.33
2019-01-27T13:45:12.653Z,52.97
2019-01-27T13:47:40.934Z,53.93
2019-01-27T13:50:11.978Z,52.47
2019-01-27T13:52:40.260Z,56.17
2019-01-27T13:55:14.601Z,63.70
2019-01-27T13:57:43.190Z,73.53
2019-01-27T14:00:14.874Z,75.53
2019-01-27T14:02:43.402Z,94.70
2019-01-27T14:05:11.774Z,107.70
2019-01-27T14:07:40.059Z,118.67
2019-01-27T14:10:14.199Z,140.87
2019-01-27T14:12:42.485Z,121.33
2019-01-27T14:15:13.797Z,119.37
2019-01-27T14:17:42.075Z,120.83
2019-01-27T14:20:13.415Z,116.10
2019-01-27T14:22:41.871Z,117.70
2019-01-27T14:25:18.764Z,117.23
2019-01-27T14:27:47.123Z,114.50
2019-01-27T14:30:18.142Z,128.73
2019-01-27T14:32:55.532Z,133.97
2019-01-27T14:35:23.908Z,149.83
2019-01-27T14:37:52.193Z,157.60
2019-01-27T14:40:23.012Z,166.93
2019-01-27T14:42:51.567Z,186.57
2019-01-27T14:45:28.883Z,183.43
2019-01-27T14:47:57.263Z,106.40
2019-01-27T14:50:30.562Z,105.53
2019-01-27T14:52:58.857Z,93.07
2019-01-27T14:55:27.133Z,93.47
2019-01-27T14:57:55.734Z,67.07
2019-01-27T15:00:29.433Z,66.00
2019-01-27T15:02:58.313Z,157.93
2019-01-27T15:05:26.594Z,87.23
2019-01-27T15:07:54.882Z,83.90
2019-01-27T15:10:24.150Z,92.60
2019-01-27T15:12:52.440Z,88.67
2019-01-27T15:15:21.961Z,90.93
2019-01-27T15:17:50.328Z,91.53
2019-01-27T15:20:27.440Z,91.73
2019-01-27T15:22:55.744Z,93.13
2019-01-27T15:25:24.092Z,93.53
2019-01-27T15:27:52.388Z,91.13
2019-01-27T15:30:26.125Z,89.70
2019-01-27T15:32:54.709Z,101.57
2019-01-27T15:35:22.995Z,100.07
2019-01-27T15:37:51.275Z,93.50
2019-01-27T15:40:19.797Z,96.70
2019-01-27T15:42:48.112Z,102.17
2019-01-27T15:45:19.572Z,95.93
2019-01-27T15:47:47.878Z,101.63
2019-01-27T15:50:19.178Z,101.37
2019-01-27T15:52:47.603Z,103.30
2019-01-27T15:55:17.648Z,105.67
2019-01-27T15:57:46.101Z,124.90
2019-01-27T16:00:32.808Z,108.57
2019-01-27T16:03:01.165Z,107.33
2019-01-27T16:05:29.541Z,109.17
2019-01-27T16:07:57.830Z,116.17
2019-01-27T16:10:27.467Z,96.60
2019-01-27T16:12:57.297Z,105.30
2019-01-27T16:15:37.849Z,93.87
2019-01-27T16:18:06.967Z,95.27
2019-01-27T16:20:36.456Z,93.80
2019-01-27T16:23:15.261Z,96.77
2019-01-27T16:25:43.629Z,91.87
2019-01-27T16:28:11.982Z,97.00
2019-01-27T16:30:47.975Z,94.30
2019-01-27T16:33:32.648Z,122.03
2019-01-27T16:36:01.221Z,118.53
2019-01-27T16:38:29.514Z,113.43
2019-01-27T16:40:57.787Z,82.60
2019-01-27T16:43:26.075Z,86.40
2019-01-27T16:45:54.352Z,88.47
2019-01-27T16:48:22.649Z,102.43
2019-01-27T16:50:51.255Z,85.67
2019-01-27T16:53:19.550Z,88.53
2019-01-27T16:55:47.828Z,88.50
2019-01-27T16:58:16.169Z,87.33
2019-01-27T17:00:44.461Z,89.73
2019-01-27T17:03:13.038Z,91.93
2019-01-27T17:05:41.587Z,94.70
2019-01-27T17:08:10.033Z,118.27
2019-01-27T17:10:38.555Z,96.03
2019-01-27T17:13:06.935Z,84.30
2019-01-27T17:15:35.536Z,90.13
2019-01-27T17:18:04.168Z,99.20
2019-01-27T17:20:32.455Z,101.37
2019-01-27T17:23:00.820Z,86.50
2019-01-27T17:25:29.102Z,98.07
2019-01-27T17:27:57.398Z,100.73
2019-01-27T17:30:26.923Z,108.70
2019-01-27T17:32:55.380Z,93.53
2019-01-27T17:35:24.415Z,100.70
2019-01-27T17:37:53.031Z,101.27
2019-01-27T17:40:21.499Z,112.77
2019-01-27T17:42:49.793Z,106.03
2019-01-27T17:45:23.222Z,126.70
2019-01-27T17:47:51.591Z,94.93
2019-01-27T17:50:21.004Z,86.67
2019-01-27T17:52:49.822Z,79.70
2019-01-27T17:55:40.105Z,79.80
2019-01-27T17:58:28.766Z,85.27
2019-01-27T18:01:10.735Z,57.40
2019-01-27T18:03:40.908Z,53.57
2019-01-27T18:06:13.358Z,58.03
2019-01-27T18:08:59.508Z,57.67
2019-01-27T18:11:45.408Z,50.50
2019-01-27T18:14:15.335Z,44.23
2019-01-27T18:16:43.629Z,45.83
2019-01-27T18:19:11.901Z,46.07
2019-01-27T18:21:40.455Z,53.50
2019-01-27T18:24:08.980Z,51.53
2019-01-27T18:26:37.277Z,47.97
2019-01-27T18:29:05.806Z,53.77
2019-01-27T18:31:34.425Z,55.60
2019-01-27T18:34:02.710Z,48.23
2019-01-27T18:36:31.007Z,50.07
2019-01-27T18:38:59.352Z,50.73
2019-01-27T18:41:27.915Z,50.63
2019-01-27T18:43:56.177Z,51.80
2019-01-27T18:46:24.487Z,44.10
2019-01-27T18:48:52.752Z,48.67
2019-01-27T18:51:21.285Z,48.27
2019-01-27T18:54:07.130Z,43.60
2019-01-27T18:56:43.368Z,42.60
2019-01-27T18:59:13.279Z,43.23
2019-01-27T19:01:45.715Z,43.37
2019-01-27T19:04:15.638Z,41.37
2019-01-27T19:06:45.824Z,38.07
2019-01-27T19:09:18.435Z,39.53
2019-01-27T19:11:54.061Z,33.40
2019-01-27T19:14:35.923Z,36.70
2019-01-27T19:17:06.649Z,43.87
2019-01-27T19:19:45.513Z,35.80
2019-01-27T19:22:21.118Z,34.83
2019-01-27T19:25:00.026Z,36.00
2019-01-27T19:27:32.423Z,33.27
2019-01-27T19:30:04.864Z,32.67
2019-01-27T19:32:37.843Z,35.20
2019-01-27T19:35:21.772Z,30.67
2019-01-27T19:37:51.705Z,34.83
2019-01-27T19:40:24.046Z,34.83
2019-01-27T19:43:08.823Z,37.07
2019-01-27T19:45:41.759Z,35.93
2019-01-27T19:48:20.641Z,34.37
2019-01-27T19:50:56.018Z,34.53
2019-01-27T19:53:43.478Z,38.43
2019-01-27T19:56:25.046Z,35.37
2019-01-27T19:58:57.742Z,38.93
2019-01-27T20:01:30.069Z,35.37
2019-01-27T20:04:02.718Z,37.80
2019-01-27T20:06:48.263Z,35.23
2019-01-27T20:09:20.744Z,32.93
2019-01-27T20:11:53.545Z,38.23
2019-01-27T20:14:27.380Z,33.77
2019-01-27T20:17:05.758Z,30.50
2019-01-27T20:19:35.696Z,34.03
2019-01-27T20:22:05.610Z,33.53
2019-01-27T20:24:41.610Z,32.50
2019-01-27T20:27:17.643Z,30.73
2019-01-27T20:29:53.584Z,29.30
2019-01-27T20:32:23.504Z,25.07
2019-01-27T20:34:53.440Z,29.37
2019-01-27T20:37:26.009Z,33.07
2019-01-27T20:40:01.369Z,27.03
2019-01-27T20:42:40.043Z,27.50
2019-01-27T20:45:13.249Z,27.23
2019-01-27T20:47:45.875Z,28.90
2019-01-27T20:50:21.539Z,29.00
2019-01-27T20:52:54.222Z,29.93
2019-01-27T20:55:38.808Z,22.43
2019-01-27T20:58:08.708Z,27.47
2019-01-27T21:00:38.647Z,28.63
2019-01-27T21:03:11.358Z,29.43
2019-01-27T21:05:46.955Z,27.50
2019-01-27T21:08:22.595Z,28.43
2019-01-27T21:10:52.522Z,26.53
2019-01-27T21:13:25.164Z,28.97
2019-01-27T21:15:55.080Z,28.97
2019-01-27T21:18:25.026Z,27.97
2019-01-27T21:20:53.839Z,26.43
2019-01-27T21:23:22.180Z,28.17
2019-01-27T21:25:50.464Z,29.47
2019-01-27T21:28:18.822Z,29.13
2019-01-27T21:30:47.099Z,25.73
2019-01-27T21:33:15.397Z,28.47
2019-01-27T21:35:43.682Z,27.63
2019-01-27T21:38:11.967Z,27.93
2019-01-27T21:40:40.253Z,28.27
2019-01-27T21:43:08.800Z,25.67
2019-01-27T21:45:37.072Z,26.10
2019-01-27T21:48:05.435Z,28.03
2019-01-27T21:50:33.981Z,25.00
2019-01-27T21:53:02.264Z,25.43
2019-01-27T21:55:30.552Z,26.00
2019-01-27T21:57:59.094Z,26.43
2019-01-27T22:00:27.390Z,23.93
2019-01-27T22:02:55.710Z,24.23
2019-01-27T22:05:23.994Z,24.47
2019-01-27T22:07:52.270Z,22.53
2019-01-27T22:10:20.571Z,22.50
2019-01-27T22:12:48.843Z,25.57
2019-01-27T22:15:17.321Z,28.43
2019-01-27T22:17:45.654Z,27.93
2019-01-27T22:20:15.026Z,31.17
2019-01-27T22:22:43.365Z,33.03
2019-01-27T22:25:13.496Z,36.53
2019-01-27T22:27:42.029Z,31.87
2019-01-27T22:30:15.726Z,32.43
2019-01-27T22:32:44.004Z,31.53
2019-01-27T22:35:12.858Z,34.27
2019-01-27T22:37:41.152Z,38.60
2019-01-27T22:40:12.417Z,30.67
2019-01-27T22:42:40.720Z,36.67
2019-01-27T22:45:14.378Z,40.43
2019-01-27T22:47:42.668Z,37.20
2019-01-27T22:50:13.786Z,38.83
2019-01-27T22:52:42.088Z,39.67
2019-01-27T22:55:11.202Z,34.83
2019-01-27T22:57:39.499Z,36.90
2019-01-27T23:00:24.444Z,36.80
2019-01-27T23:02:53.006Z,32.43
2019-01-27T23:05:21.282Z,35.30
2019-01-27T23:07:49.830Z,35.37
2019-01-27T23:10:18.113Z,34.67
2019-01-27T23:12:46.656Z,34.73
2019-01-27T23:15:14.938Z,32.40
2019-01-27T23:17:43.233Z,32.30
2019-01-27T23:20:11.580Z,30.03
2019-01-27T23:22:39.885Z,33.90
2019-01-27T23:25:08.226Z,32.97
2019-01-27T23:27:36.524Z,31.33
2019-01-27T23:30:07.373Z,31.40
2019-01-27T23:32:35.649Z,32.23
2019-01-27T23:35:05.206Z,30.23
2019-01-27T23:37:33.490Z,31.10
2019-01-27T23:40:01.780Z,32.20
2019-01-27T23:42:30.054Z,28.53
2019-01-27T23:44:58.345Z,28.70
2019-01-27T23:47:26.630Z,28.23
2019-01-27T23:49:54.926Z,31.73
2019-01-27T23:52:23.201Z,29.83
2019-01-27T23:54:51.760Z,29.27
2019-01-27T23:57:20.267Z,26.10
2019-01-27T23:59:48.561Z,29.83
